createdAt,value
2018-05-06T00:01:13.741Z,94865.45
2018-05-06T00:03:41.852Z,94875.84
2018-05-06T00:06:09.899Z,94869.09
2018-05-06T00:08:37.881Z,94875.28
2018-05-06T00:11:05.897Z,94880.05
2018-05-06T00:13:33.916Z,94882.08
2018-05-06T00:16:02.031Z,94872.22
2018-05-06T00:18:30.119Z,94876.42
2018-05-06T00:20:58.219Z,94895.28
2018-05-06T00:23:26.316Z,94891.37
2018-05-06T00:25:54.287Z,94886.75
2018-05-06T00:28:22.255Z,94896.69
2018-05-06T00:30:50.223Z,94882.89
2018-05-06T00:33:18.736Z,94891.36
2018-05-06T00:35:47.318Z,94891.28
2018-05-06T00:38:15.474Z,94794.98
2018-05-06T00:40:43.499Z,94882.61
2018-05-06T00:43:11.501Z,94885.14
2018-05-06T00:45:39.452Z,94889.09
2018-05-06T00:48:07.495Z,94885.28
2018-05-06T00:50:36.150Z,94886.48
2018-05-06T00:53:04.941Z,94883.19
2018-05-06T00:55:33.444Z,94882.70
2018-05-06T00:58:02.149Z,94877.69
2018-05-06T01:00:30.895Z,94881.70
2018-05-06T01:02:59.373Z,94892.41
2018-05-06T01:05:27.898Z,94883.27
2018-05-06T01:07:56.240Z,94892.55
2018-05-06T01:10:24.473Z,94889.00
2018-05-06T01:12:52.887Z,94893.35
2018-05-06T01:15:21.568Z,94898.70
2018-05-06T01:17:49.966Z,94899.55
2018-05-06T01:20:18.438Z,94896.66
2018-05-06T01:22:47.209Z,94891.88
2018-05-06T01:25:15.991Z,94885.94
2018-05-06T01:27:44.795Z,94885.78
2018-05-06T01:30:13.220Z,94877.30
2018-05-06T01:32:41.642Z,94878.45
2018-05-06T01:35:10.298Z,94879.20
2018-05-06T01:37:38.730Z,94869.33
2018-05-06T01:40:07.519Z,94857.09
2018-05-06T01:42:36.280Z,94856.76
2018-05-06T01:45:04.282Z,94840.72
2018-05-06T01:47:32.334Z,94857.07
2018-05-06T01:50:00.299Z,94863.52
2018-05-06T01:52:28.284Z,94868.75
2018-05-06T01:54:56.437Z,94859.90
2018-05-06T01:57:25.157Z,94857.30
2018-05-06T01:59:53.601Z,94856.53
2018-05-06T02:02:21.618Z,94854.23
2018-05-06T02:04:49.650Z,94851.73
2018-05-06T02:07:17.698Z,94856.82
2018-05-06T02:09:45.755Z,94855.94
2018-05-06T02:12:13.750Z,94843.58
2018-05-06T02:14:41.812Z,94845.98
2018-05-06T02:17:09.762Z,94844.33
2018-05-06T02:19:37.719Z,94845.22
2018-05-06T02:22:05.773Z,94842.28
2018-05-06T02:24:33.743Z,94844.59
2018-05-06T02:27:02.194Z,94842.14
2018-05-06T02:29:30.141Z,94843.55
2018-05-06T02:31:58.199Z,94843.45
2018-05-06T02:34:26.274Z,94832.04
2018-05-06T02:36:54.242Z,94839.01
2018-05-06T02:39:22.208Z,94837.83
2018-05-06T02:41:50.218Z,94839.83
2018-05-06T02:44:18.259Z,94837.70
2018-05-06T02:46:46.259Z,94838.90
2018-05-06T02:49:14.286Z,94845.83
2018-05-06T02:51:42.299Z,94844.42
2018-05-06T02:54:10.338Z,94854.83
2018-05-06T02:56:38.351Z,94858.61
2018-05-06T02:59:06.358Z,94857.34
2018-05-06T03:01:34.381Z,94858.16
2018-05-06T03:04:02.373Z,94856.27
2018-05-06T03:06:30.315Z,94862.15
2018-05-06T03:08:58.268Z,94866.01
2018-05-06T03:11:26.237Z,94867.94
2018-05-06T03:13:54.190Z,94863.59
2018-05-06T03:16:22.228Z,94863.63
2018-05-06T03:18:50.159Z,94850.70
2018-05-06T03:21:18.166Z,94860.29
2018-05-06T03:23:46.199Z,94865.80
2018-05-06T03:26:14.165Z,94866.33
2018-05-06T03:28:42.430Z,94872.11
2018-05-06T03:31:10.452Z,94867.47
2018-05-06T03:33:38.470Z,94864.92
2018-05-06T03:36:06.516Z,94869.42
2018-05-06T03:38:35.115Z,94877.51
2018-05-06T03:41:03.587Z,94871.95
2018-05-06T03:43:32.385Z,94871.55
2018-05-06T03:46:00.840Z,94871.69
2018-05-06T03:48:29.280Z,94872.75
2018-05-06T03:50:57.925Z,94868.69
2018-05-06T03:53:26.493Z,94865.66
2018-05-06T03:59:16.054Z,94870.84
2018-05-06T04:01:44.225Z,94866.01
2018-05-06T04:04:12.654Z,94871.05
2018-05-06T04:06:41.911Z,94867.71
2018-05-06T04:09:10.519Z,94870.12
2018-05-06T04:11:38.544Z,94864.70
2018-05-06T04:14:06.496Z,94861.05
2018-05-06T04:16:34.487Z,94868.66
2018-05-06T04:19:02.474Z,94867.24
2018-05-06T04:21:30.547Z,94866.28
2018-05-06T04:23:58.540Z,94865.45
2018-05-06T04:26:26.531Z,94864.66
2018-05-06T04:28:54.910Z,94863.83
2018-05-06T04:31:22.929Z,94861.48
2018-05-06T04:33:50.895Z,94860.36
2018-05-06T04:36:18.921Z,94862.55
2018-05-06T04:38:47.153Z,94860.27
2018-05-06T04:41:15.131Z,94857.55
2018-05-06T04:43:43.190Z,94856.37
2018-05-06T04:46:11.252Z,94861.09
2018-05-06T04:48:39.271Z,94856.66
2018-05-06T04:51:07.535Z,94857.58
2018-05-06T04:53:35.549Z,94857.23
2018-05-06T04:56:03.491Z,94856.39
2018-05-06T04:58:31.553Z,94854.73
2018-05-06T05:00:59.568Z,94854.34
2018-05-06T05:03:27.621Z,94849.88
2018-05-06T05:05:55.607Z,94854.41
2018-05-06T05:08:23.623Z,94848.95
2018-05-06T05:10:51.543Z,94848.03
2018-05-06T05:13:19.525Z,94841.56
2018-05-06T05:15:47.582Z,94845.34
2018-05-06T05:18:16.240Z,94845.28
2018-05-06T05:20:44.415Z,94854.30
2018-05-06T05:23:12.363Z,94857.92
2018-05-06T05:25:40.396Z,94862.53
2018-05-06T05:28:08.415Z,94858.38
2018-05-06T05:30:37.080Z,94859.83
2018-05-06T05:33:05.051Z,94864.72
2018-05-06T05:35:33.108Z,94838.73
2018-05-06T05:38:01.075Z,94864.98
2018-05-06T05:40:29.098Z,94859.98
2018-05-06T05:42:57.041Z,94853.64
2018-05-06T05:45:25.183Z,94845.41
2018-05-06T05:47:53.216Z,94856.72
2018-05-06T05:50:21.246Z,94849.14
2018-05-06T05:52:49.272Z,94842.21
2018-05-06T05:55:17.334Z,94837.16
2018-05-06T05:57:45.321Z,94843.91
2018-05-06T06:00:13.257Z,94836.17
2018-05-06T06:02:41.337Z,94839.21
2018-05-06T06:05:09.309Z,94831.50
2018-05-06T06:07:37.389Z,94825.97
2018-05-06T06:10:05.370Z,94821.58
2018-05-06T06:12:33.457Z,94830.68
2018-05-06T06:15:01.686Z,94833.55
2018-05-06T06:17:29.602Z,94836.06
2018-05-06T06:19:57.618Z,94830.55
2018-05-06T06:22:25.638Z,94820.28
2018-05-06T06:24:53.619Z,94828.11
2018-05-06T06:27:21.620Z,94820.72
2018-05-06T06:29:49.622Z,94821.95
2018-05-06T06:32:17.944Z,94817.60
2018-05-06T06:34:46.012Z,94818.98
2018-05-06T06:37:14.045Z,94811.33
2018-05-06T06:39:42.084Z,94811.16
2018-05-06T06:42:10.132Z,94813.16
2018-05-06T06:44:38.162Z,94812.92
2018-05-06T06:47:06.191Z,94805.83
2018-05-06T06:49:34.195Z,94800.14
2018-05-06T06:52:02.236Z,94810.34
2018-05-06T06:54:30.315Z,94800.25
2018-05-06T06:56:58.451Z,94805.80
2018-05-06T06:59:26.743Z,94799.78
2018-05-06T07:01:55.743Z,94793.86
2018-05-06T07:04:23.935Z,94790.31
2018-05-06T07:06:51.955Z,94796.83
2018-05-06T07:09:20.044Z,94735.90
2018-05-06T07:11:48.215Z,94793.17
2018-05-06T07:14:16.252Z,94789.28
2018-05-06T07:16:44.319Z,94786.85
2018-05-06T07:19:12.336Z,94788.92
2018-05-06T07:21:40.345Z,94793.39
2018-05-06T07:24:08.364Z,94794.66
2018-05-06T07:26:36.428Z,94790.77
2018-05-06T07:29:04.448Z,94786.58
2018-05-06T07:31:32.450Z,94789.77
2018-05-06T07:34:00.737Z,94801.78
2018-05-06T07:36:28.831Z,94791.12
2018-05-06T07:38:56.804Z,94795.52
2018-05-06T07:41:24.852Z,94790.64
2018-05-06T07:43:52.910Z,94785.31
2018-05-06T07:46:20.874Z,94783.05
2018-05-06T07:48:48.875Z,94790.80
2018-05-06T07:51:16.917Z,94791.54
2018-05-06T07:53:44.967Z,94782.82
2018-05-06T07:56:12.934Z,94787.43
2018-05-06T07:58:41.085Z,94779.36
2018-05-06T08:01:09.237Z,94774.25
2018-05-06T08:03:37.247Z,94773.98
2018-05-06T08:06:05.354Z,94771.29
2018-05-06T08:08:33.368Z,94766.66
2018-05-06T08:11:01.370Z,94762.96
2018-05-06T08:13:29.396Z,94766.20
2018-05-06T08:15:57.365Z,94758.02
2018-05-06T08:18:25.388Z,94758.58
2018-05-06T08:20:53.383Z,94753.77
2018-05-06T08:23:21.403Z,94758.26
2018-05-06T08:25:49.420Z,94756.25
2018-05-06T08:28:17.389Z,94751.84
2018-05-06T08:30:45.542Z,94755.92
2018-05-06T08:33:13.675Z,94752.74
2018-05-06T08:35:42.115Z,94746.41
2018-05-06T08:38:10.139Z,94747.98
2018-05-06T08:40:38.226Z,94745.24
2018-05-06T08:43:06.349Z,94743.06
2018-05-06T08:45:34.392Z,94737.05
2018-05-06T08:48:02.532Z,94732.41
2018-05-06T08:50:30.518Z,94739.20
2018-05-06T08:52:58.583Z,94737.42
2018-05-06T08:55:26.643Z,94736.69
2018-05-06T08:57:54.704Z,94731.01
2018-05-06T09:00:22.810Z,94727.37
2018-05-06T09:02:50.890Z,94727.77
2018-05-06T09:05:18.951Z,94731.45
2018-05-06T09:07:47.046Z,94710.69
2018-05-06T09:10:15.120Z,94720.86
2018-05-06T09:12:43.212Z,94719.56
2018-05-06T09:15:11.259Z,94709.63
2018-05-06T09:17:39.251Z,94710.19
2018-05-06T09:20:07.270Z,94715.60
2018-05-06T09:22:35.366Z,94699.16
2018-05-06T09:25:03.578Z,94702.88
2018-05-06T09:27:31.708Z,94705.33
2018-05-06T09:29:59.870Z,94701.38
2018-05-06T09:32:27.882Z,94694.38
2018-05-06T09:34:56.007Z,94693.26
2018-05-06T09:37:24.549Z,94679.90
2018-05-06T09:39:52.651Z,94691.06
2018-05-06T09:42:20.761Z,94687.12
2018-05-06T09:44:48.965Z,94691.03
2018-05-06T09:47:17.001Z,94688.63
2018-05-06T09:49:45.085Z,94682.27
2018-05-06T09:52:13.174Z,94677.00
2018-05-06T09:54:41.403Z,94675.87
2018-05-06T09:57:10.228Z,94673.28
2018-05-06T09:59:38.332Z,94671.73
2018-05-06T10:02:06.476Z,94663.00
2018-05-06T10:04:34.593Z,94658.96
2018-05-06T10:07:02.717Z,94656.20
2018-05-06T10:09:30.884Z,94656.55
2018-05-06T10:11:59.144Z,94655.75
2018-05-06T10:14:27.248Z,94645.73
2018-05-06T10:16:55.326Z,94652.95
2018-05-06T10:19:23.445Z,94646.14
2018-05-06T10:21:51.582Z,94661.22
2018-05-06T10:24:19.684Z,94669.45
2018-05-06T10:26:47.774Z,94675.03
2018-05-06T10:29:15.847Z,94676.18
2018-05-06T10:31:43.991Z,94676.54
2018-05-06T10:34:12.069Z,94674.91
2018-05-06T10:36:40.145Z,94664.55
2018-05-06T10:39:08.467Z,94672.78
2018-05-06T10:41:36.522Z,94671.05
2018-05-06T10:44:04.684Z,94675.08
2018-05-06T10:46:32.715Z,94668.91
2018-05-06T10:49:00.878Z,94665.41
2018-05-06T10:51:28.894Z,94663.05
2018-05-06T10:53:56.995Z,94669.05
2018-05-06T10:56:25.017Z,94663.27
2018-05-06T10:58:53.074Z,94662.73
2018-05-06T11:01:21.147Z,94661.92
2018-05-06T11:03:49.201Z,94673.23
2018-05-06T11:06:17.240Z,94705.03
2018-05-06T11:08:45.388Z,94726.63
2018-05-06T11:11:13.448Z,94758.15
2018-05-06T11:13:41.459Z,94726.66
2018-05-06T11:16:10.397Z,94723.99
2018-05-06T11:18:38.528Z,94732.80
2018-05-06T11:21:06.535Z,94745.65
2018-05-06T11:23:34.639Z,94735.63
2018-05-06T11:26:02.707Z,94737.72
2018-05-06T11:28:30.718Z,94725.88
2018-05-06T11:30:58.805Z,94711.69
2018-05-06T11:33:26.933Z,94702.75
2018-05-06T11:35:54.972Z,94699.31
2018-05-06T11:38:22.951Z,94690.95
2018-05-06T11:40:51.287Z,94694.90
2018-05-06T11:43:19.353Z,94688.13
2018-05-06T11:45:47.441Z,94685.47
2018-05-06T11:48:15.457Z,94683.08
2018-05-06T11:50:43.517Z,94677.42
2018-05-06T11:53:11.554Z,94670.78
2018-05-06T11:55:39.619Z,94656.91
2018-05-06T11:58:07.696Z,94650.47
2018-05-06T12:00:35.770Z,94646.11
2018-05-06T12:03:03.873Z,94634.09
2018-05-06T12:05:31.953Z,94603.52
2018-05-06T12:08:00.145Z,94616.95
2018-05-06T12:10:28.233Z,94613.70
2018-05-06T12:12:56.389Z,94603.66
2018-05-06T12:15:24.617Z,94601.14
2018-05-06T12:17:52.710Z,94589.16
2018-05-06T12:20:20.841Z,94588.91
2018-05-06T12:22:49.081Z,94590.93
2018-05-06T12:25:17.163Z,94582.16
2018-05-06T12:27:45.259Z,94588.45
2018-05-06T12:30:13.273Z,94587.09
2018-05-06T12:32:41.346Z,94584.11
2018-05-06T12:35:12.005Z,94577.38
2018-05-06T12:37:40.018Z,94569.58
2018-05-06T12:40:08.047Z,94562.61
2018-05-06T12:42:36.334Z,94554.70
2018-05-06T12:45:04.405Z,94550.77
2018-05-06T12:47:32.559Z,94534.00
2018-05-06T12:50:00.680Z,94533.77
2018-05-06T12:52:28.621Z,94543.23
2018-05-06T12:54:56.630Z,94538.67
2018-05-06T12:57:24.670Z,94541.83
2018-05-06T12:59:52.723Z,94544.02
2018-05-06T13:02:20.837Z,94546.55
2018-05-06T13:04:48.916Z,94549.44
2018-05-06T13:07:17.063Z,94549.94
2018-05-06T13:09:45.158Z,94547.45
2018-05-06T13:12:13.333Z,94544.39
2018-05-06T13:14:41.453Z,94554.03
2018-05-06T13:17:09.438Z,94550.91
2018-05-06T13:19:38.505Z,94555.03
2018-05-06T13:22:06.641Z,94551.47
2018-05-06T13:24:34.708Z,94552.58
2018-05-06T13:27:02.779Z,94554.20
2018-05-06T13:29:30.865Z,94555.59
2018-05-06T13:31:58.989Z,94558.80
2018-05-06T13:34:27.203Z,94561.83
2018-05-06T13:36:55.228Z,94564.21
2018-05-06T13:39:23.282Z,94566.33
2018-05-06T13:41:51.386Z,94568.98
2018-05-06T13:44:19.707Z,94558.45
2018-05-06T13:46:47.759Z,94569.63
2018-05-06T13:49:15.765Z,94568.34
2018-05-06T13:51:43.763Z,94561.51
2018-05-06T13:54:11.835Z,94573.29
2018-05-06T13:56:39.933Z,94576.39
2018-05-06T13:59:08.130Z,94589.41
2018-05-06T14:01:36.193Z,94599.19
2018-05-06T14:04:04.309Z,94603.23
2018-05-06T14:06:32.385Z,94607.48
2018-05-06T14:09:00.396Z,94613.50
2018-05-06T14:11:28.467Z,94620.67
2018-05-06T14:13:56.598Z,94624.92
2018-05-06T14:16:24.711Z,94631.29
2018-05-06T14:18:52.930Z,94644.05
2018-05-06T14:21:20.933Z,94641.50
2018-05-06T14:23:48.967Z,94636.95
2018-05-06T14:26:16.950Z,94641.91
2018-05-06T14:28:44.988Z,94639.19
2018-05-06T14:31:12.974Z,94629.99
2018-05-06T14:33:41.167Z,94635.05
2018-05-06T14:36:09.240Z,94630.98
2018-05-06T14:38:37.366Z,94629.50
2018-05-06T14:41:05.429Z,94622.05
2018-05-06T14:43:33.534Z,94628.63
2018-05-06T14:46:01.898Z,94631.95
2018-05-06T14:48:29.973Z,94636.77
2018-05-06T14:50:58.024Z,94636.56
2018-05-06T14:53:26.203Z,94637.41
2018-05-06T14:55:54.398Z,94639.72
2018-05-06T14:58:22.416Z,94647.81
2018-05-06T15:00:50.435Z,94646.72
2018-05-06T15:03:18.522Z,94659.48
2018-05-06T15:05:46.683Z,94659.09
2018-05-06T15:08:14.725Z,94660.40
2018-05-06T15:10:42.811Z,94667.11
2018-05-06T15:13:10.742Z,94668.02
2018-05-06T15:15:39.074Z,94665.53
2018-05-06T15:18:07.110Z,94673.82
2018-05-06T15:20:35.120Z,94681.30
2018-05-06T15:23:03.167Z,94681.89
2018-05-06T15:25:31.154Z,94694.02
2018-05-06T15:27:59.218Z,94694.30
2018-05-06T15:30:27.210Z,94708.97
2018-05-06T15:32:55.230Z,94714.98
2018-05-06T15:35:23.262Z,94716.84
2018-05-06T15:37:51.316Z,94715.27
2018-05-06T15:40:19.383Z,94713.88
2018-05-06T15:42:47.372Z,94714.11
2018-05-06T15:45:15.389Z,94717.54
2018-05-06T15:47:43.640Z,94720.56
2018-05-06T15:50:11.757Z,94712.44
2018-05-06T15:52:39.796Z,94718.64
2018-05-06T15:55:07.821Z,94717.78
2018-05-06T15:57:35.922Z,94723.58
2018-05-06T16:00:04.059Z,94725.33
2018-05-06T16:05:38.136Z,94743.22
2018-05-06T16:08:06.213Z,94751.28
2018-05-06T16:10:34.273Z,94741.99
2018-05-06T16:13:02.380Z,94739.91
2018-05-06T16:15:30.493Z,94734.30
2018-05-06T16:17:58.619Z,94726.83
2018-05-06T16:20:26.690Z,94729.89
2018-05-06T16:22:54.660Z,94730.31
2018-05-06T16:25:22.724Z,94763.56
2018-05-06T16:27:50.739Z,94756.98
2018-05-06T16:30:18.788Z,94749.22
2018-05-06T16:32:46.897Z,94760.17
2018-05-06T16:35:14.926Z,94769.12
2018-05-06T16:37:42.971Z,94772.70
2018-05-06T16:40:11.138Z,94781.39
2018-05-06T16:42:39.277Z,94793.56
2018-05-06T16:45:07.418Z,94788.70
2018-05-06T16:47:35.488Z,94781.61
2018-05-06T16:50:04.046Z,94784.55
2018-05-06T16:52:32.226Z,94783.62
2018-05-06T16:55:01.308Z,94794.10
2018-05-06T16:57:29.464Z,94791.40
2018-05-06T16:59:59.046Z,94787.27
2018-05-06T17:02:27.322Z,94796.71
2018-05-06T17:04:55.541Z,94788.97
2018-05-06T17:07:25.071Z,94804.77
2018-05-06T17:09:53.095Z,94792.56
2018-05-06T17:12:21.173Z,94799.23
2018-05-06T17:14:49.213Z,94798.42
2018-05-06T17:17:17.229Z,94795.48
2018-05-06T17:19:45.361Z,94774.21
2018-05-06T17:22:13.449Z,94785.45
2018-05-06T17:24:41.493Z,94777.75
2018-05-06T17:27:09.582Z,94783.57
2018-05-06T17:29:37.651Z,94778.42
2018-05-06T17:32:05.804Z,94782.09
2018-05-06T17:34:33.936Z,94782.23
2018-05-06T17:37:02.437Z,94791.70
2018-05-06T17:39:30.502Z,94786.45
2018-05-06T17:41:58.604Z,94790.33
2018-05-06T17:44:26.664Z,94795.94
2018-05-06T17:46:54.759Z,94795.91
2018-05-06T17:49:22.801Z,94802.50
2018-05-06T17:51:51.097Z,94809.19
2018-05-06T17:54:19.155Z,94818.57
2018-05-06T17:56:47.191Z,94820.23
2018-05-06T17:59:15.249Z,94826.56
2018-05-06T18:01:43.385Z,94832.77
2018-05-06T18:04:11.352Z,94838.69
2018-05-06T18:06:39.398Z,94846.64
2018-05-06T18:09:07.395Z,94845.32
2018-05-06T18:11:35.415Z,94853.86
2018-05-06T18:14:03.438Z,94855.96
2018-05-06T18:16:31.521Z,94867.00
2018-05-06T18:18:59.578Z,94881.28
2018-05-06T18:21:27.683Z,94892.78
2018-05-06T18:23:55.747Z,94895.23
2018-05-06T18:26:23.786Z,94890.86
2018-05-06T18:28:51.793Z,94894.45
2018-05-06T18:31:19.870Z,94896.19
2018-05-06T18:33:47.861Z,94903.13
2018-05-06T18:36:15.865Z,94911.02
2018-05-06T18:38:43.952Z,94907.97
2018-05-06T18:41:11.974Z,94903.54
2018-05-06T18:43:40.001Z,94909.70
2018-05-06T18:46:08.085Z,94912.36
2018-05-06T18:48:36.182Z,94914.91
2018-05-06T18:51:04.252Z,94924.39
2018-05-06T18:53:32.313Z,94919.73
2018-05-06T18:56:00.347Z,94923.45
2018-05-06T18:58:28.426Z,94925.44
2018-05-06T19:00:56.608Z,94921.83
2018-05-06T19:03:24.641Z,94924.08
2018-05-06T19:05:53.805Z,94917.69
2018-05-06T19:08:24.841Z,94902.39
2018-05-06T19:10:53.861Z,94906.02
2018-05-06T19:13:29.181Z,94901.89
2018-05-06T19:15:57.867Z,94898.53
2018-05-06T19:18:25.852Z,94893.69
2018-05-06T19:20:53.924Z,94889.30
2018-05-06T19:23:22.244Z,94896.25
2018-05-06T19:25:51.507Z,94887.84
2018-05-06T19:28:28.174Z,94889.72
2018-05-06T19:30:56.272Z,94894.27
2018-05-06T19:33:24.481Z,94899.00
2018-05-06T19:35:54.161Z,94902.87
2018-05-06T19:38:22.235Z,94895.81
2018-05-06T19:40:50.332Z,94901.44
2018-05-06T19:43:18.267Z,94901.49
2018-05-06T19:45:46.355Z,94911.61
2018-05-06T19:48:14.427Z,94911.58
2018-05-06T19:50:42.486Z,94914.27
2018-05-06T19:53:10.581Z,94920.05
2018-05-06T19:55:39.033Z,94926.66
2018-05-06T19:58:07.091Z,94925.41
2018-05-06T20:00:35.115Z,94919.05
2018-05-06T20:03:03.198Z,94916.91
2018-05-06T20:05:31.211Z,94914.72
2018-05-06T20:07:59.390Z,94914.72
2018-05-06T20:10:27.500Z,94907.92
2018-05-06T20:12:55.549Z,94917.47
2018-05-06T20:15:23.530Z,94918.02
2018-05-06T20:17:51.595Z,94925.42
2018-05-06T20:20:19.621Z,94926.56
2018-05-06T20:22:47.665Z,94929.36
2018-05-06T20:25:15.721Z,94833.08
2018-05-06T20:27:43.711Z,94938.34
2018-05-06T20:30:11.811Z,94937.53
2018-05-06T20:32:39.865Z,94934.82
2018-05-06T20:35:07.967Z,94931.44
2018-05-06T20:37:36.059Z,94919.95
2018-05-06T20:40:04.145Z,94934.96
2018-05-06T20:42:32.202Z,94939.63
2018-05-06T20:45:00.288Z,94938.30
2018-05-06T20:47:28.304Z,94937.89
2018-05-06T20:49:56.322Z,94941.17
2018-05-06T20:52:25.514Z,94940.77
2018-05-06T20:54:53.530Z,94942.07
2018-05-06T20:57:21.968Z,94947.61
2018-05-06T20:59:50.058Z,94941.94
2018-05-06T21:02:18.157Z,94911.08
2018-05-06T21:04:46.255Z,94931.47
2018-05-06T21:07:14.416Z,94929.23
2018-05-06T21:09:42.419Z,94933.47
2018-05-06T21:12:10.445Z,94929.45
2018-05-06T21:14:38.501Z,94924.08
2018-05-06T21:17:06.581Z,94913.77
2018-05-06T21:19:34.607Z,94921.75
2018-05-06T21:22:02.783Z,94922.38
2018-05-06T21:24:30.816Z,94926.11
2018-05-06T21:26:58.890Z,94931.37
2018-05-06T21:29:26.987Z,94932.30
2018-05-06T21:31:55.100Z,94928.36
2018-05-06T21:34:23.198Z,94927.34
2018-05-06T21:36:51.379Z,94925.64
2018-05-06T21:39:19.391Z,94931.77
2018-05-06T21:41:47.430Z,94934.97
2018-05-06T21:44:15.431Z,94934.72
2018-05-06T21:46:43.454Z,94936.31
2018-05-06T21:49:11.476Z,94934.63
2018-05-06T21:51:39.539Z,94929.64
2018-05-06T21:54:07.535Z,94927.00
2018-05-06T21:56:35.557Z,94929.99
2018-05-06T21:59:03.945Z,94923.81
2018-05-06T22:01:32.036Z,94918.16
2018-05-06T22:04:00.031Z,94917.40
2018-05-06T22:06:28.204Z,94912.68
2018-05-06T22:08:56.247Z,94919.41
2018-05-06T22:11:24.354Z,94914.82
2018-05-06T22:13:52.451Z,94910.48
2018-05-06T22:16:20.533Z,94909.61
2018-05-06T22:18:48.586Z,94902.58
2018-05-06T22:21:16.591Z,94903.30
2018-05-06T22:23:44.604Z,94895.75
2018-05-06T22:26:12.643Z,94900.66
2018-05-06T22:28:40.664Z,94905.84
2018-05-06T22:31:08.741Z,94907.49
2018-05-06T22:33:36.775Z,94910.42
2018-05-06T22:36:04.902Z,94912.08
2018-05-06T22:38:32.941Z,94906.59
2018-05-06T22:41:01.009Z,94906.83
2018-05-06T22:43:29.067Z,94900.77
2018-05-06T22:45:57.186Z,94906.66
2018-05-06T22:48:25.229Z,94864.74
2018-05-06T22:50:53.303Z,94897.42
2018-05-06T22:53:21.360Z,94894.97
2018-05-06T22:55:49.611Z,94891.31
2018-05-06T22:58:17.701Z,94897.87
2018-05-06T23:00:48.091Z,94894.39
2018-05-06T23:03:17.231Z,94887.02
2018-05-06T23:05:45.317Z,94886.67
2018-05-06T23:08:13.315Z,94884.36
2018-05-06T23:10:41.352Z,94887.18
2018-05-06T23:13:09.431Z,94891.17
2018-05-06T23:15:37.433Z,94892.50
2018-05-06T23:18:05.509Z,94876.86
2018-05-06T23:20:33.623Z,94891.57
2018-05-06T23:23:01.683Z,94883.89
2018-05-06T23:25:29.658Z,94885.92
2018-05-06T23:27:57.799Z,94883.03
2018-05-06T23:30:25.835Z,94875.62
2018-05-06T23:32:53.911Z,94867.80
2018-05-06T23:35:21.945Z,94863.49
2018-05-06T23:37:50.072Z,94837.11
2018-05-06T23:40:18.109Z,94859.67
2018-05-06T23:42:46.133Z,94858.66
2018-05-06T23:45:14.182Z,94860.09
2018-05-06T23:47:42.353Z,94856.44
2018-05-06T23:50:10.462Z,94859.02
2018-05-06T23:52:38.546Z,94853.35
2018-05-06T23:55:06.571Z,94853.84
2018-05-06T23:57:34.626Z,94863.98
